KIWD/IWD METAR and TAF weather

Enter ICAO airport designator
Station Type Date Time Source
KIWD METAR 2020/01/28 11:56 UTC NOAA

KIWD 281156Z AUTO 25006KT 9SM OVC011 M09/M10 A3008 RMK AO2 SNB1058E56 SLP209 P0000 60000 T10891100 11072 21089 51010 FZRANO


Station Type Date Time Source
KIWD Decoded METAR 2020/01/28 11:56 UTC NOAA

Ironwood, Gogebic-Iron County Airport, MI, United States (KIWD) 46-32N 090-08W
Jan 28, 2020 - 06:56 AM EST / 2020.01.28 1156 UTC
Wind: from the WSW (250 degrees) at 7 MPH (6 KT):0
Visibility: 9 mile(s):0
Sky conditions: overcast
Precipitation last hour: A trace
Temperature: 16.0 F (-8.9 C)
Windchill: 6 F (-14 C):1
Dew Point: 14.0 F (-10.0 C)
Relative Humidity: 91%
Pressure (altimeter): 30.08 in. Hg (1018 hPa)
Pressure tendency: 0.03 inches (1.0 hPa) higher than three hours ago
ob: KIWD 281156Z AUTO 25006KT 9SM OVC011 M09/M10 A3008 RMK AO2 SNB1058E56 SLP209 P0000 60000 T10891100 11072 21089 51010 FZRANO
cycle: 12

Station Type Date Time Source
KIWD TAF 2020/01/28 12:24 UTC NOAA

TAF KIWD 281122Z 2812/2912 29006KT 6SM -SHSN OVC008
FM282000 36005KT P6SM -SHSN OVC010
FM290000 00000KT P6SM OVC011
FM291100 00000KT P6SM BKN021

Example: see airport list